sensor_id;sensor_type;location;lat;lon;timestamp;temperature;humidity
24618;DHT22;12762;51.730;5.356;2023-03-01T00:01:26;1.10;55.00
24618;DHT22;12762;51.730;5.356;2023-03-01T00:03:54;1.10;55.10
24618;DHT22;12762;51.730;5.356;2023-03-01T00:06:21;1.10;55.10
24618;DHT22;12762;51.730;5.356;2023-03-01T00:08:49;1.10;55.20
24618;DHT22;12762;51.730;5.356;2023-03-01T00:11:27;1.00;55.20
24618;DHT22;12762;51.730;5.356;2023-03-01T00:13:57;1.00;55.20
24618;DHT22;12762;51.730;5.356;2023-03-01T00:16:28;1.00;55.30
24618;DHT22;12762;51.730;5.356;2023-03-01T00:18:57;1.00;55.30
24618;DHT22;12762;51.730;5.356;2023-03-01T00:21:24;0.90;55.30
24618;DHT22;12762;51.730;5.356;2023-03-01T00:23:52;0.90;55.40
24618;DHT22;12762;51.730;5.356;2023-03-01T00:26:20;0.90;55.40
24618;DHT22;12762;51.730;5.356;2023-03-01T00:28:47;0.90;55.40
24618;DHT22;12762;51.730;5.356;2023-03-01T00:31:17;0.90;55.40
24618;DHT22;12762;51.730;5.356;2023-03-01T00:33:45;0.80;55.40
24618;DHT22;12762;51.730;5.356;2023-03-01T00:36:15;0.80;55.50
24618;DHT22;12762;51.730;5.356;2023-03-01T00:38:44;0.80;55.60
24618;DHT22;12762;51.730;5.356;2023-03-01T00:41:15;0.70;55.50
24618;DHT22;12762;51.730;5.356;2023-03-01T00:43:43;0.70;55.60
24618;DHT22;12762;51.730;5.356;2023-03-01T00:46:13;0.70;55.60
24618;DHT22;12762;51.730;5.356;2023-03-01T00:48:41;0.70;55.70
24618;DHT22;12762;51.730;5.356;2023-03-01T00:51:25;0.60;55.60
24618;DHT22;12762;51.730;5.356;2023-03-01T00:53:55;0.60;55.70
24618;DHT22;12762;51.730;5.356;2023-03-01T00:56:23;0.60;56.30
24618;DHT22;12762;51.730;5.356;2023-03-01T00:58:50;0.60;55.80
24618;DHT22;12762;51.730;5.356;2023-03-01T01:01:29;0.50;55.70
24618;DHT22;12762;51.730;5.356;2023-03-01T01:03:59;0.50;55.90
24618;DHT22;12762;51.730;5.356;2023-03-01T01:06:32;0.50;55.90
24618;DHT22;12762;51.730;5.356;2023-03-01T01:08:59;0.50;55.90
24618;DHT22;12762;51.730;5.356;2023-03-01T01:11:30;0.40;55.80
24618;DHT22;12762;51.730;5.356;2023-03-01T01:13:57;0.40;55.90
24618;DHT22;12762;51.730;5.356;2023-03-01T01:16:27;0.40;56.00
24618;DHT22;12762;51.730;5.356;2023-03-01T01:18:55;0.30;55.90
24618;DHT22;12762;51.730;5.356;2023-03-01T01:21:23;0.30;56.00
24618;DHT22;12762;51.730;5.356;2023-03-01T01:23:51;0.30;56.00
24618;DHT22;12762;51.730;5.356;2023-03-01T01:26:21;0.30;56.10
24618;DHT22;12762;51.730;5.356;2023-03-01T01:28:48;0.30;56.10
24618;DHT22;12762;51.730;5.356;2023-03-01T01:31:16;0.20;56.10
24618;DHT22;12762;51.730;5.356;2023-03-01T01:33:43;0.20;56.10
24618;DHT22;12762;51.730;5.356;2023-03-01T01:36:12;0.20;56.10
24618;DHT22;12762;51.730;5.356;2023-03-01T01:38:39;0.20;56.90
24618;DHT22;12762;51.730;5.356;2023-03-01T01:41:06;0.20;56.20
24618;DHT22;12762;51.730;5.356;2023-03-01T01:43:37;0.20;56.30
24618;DHT22;12762;51.730;5.356;2023-03-01T01:49:17;0.10;56.30
24618;DHT22;12762;51.730;5.356;2023-03-01T01:51:47;0.10;56.30
24618;DHT22;12762;51.730;5.356;2023-03-01T01:54:19;0.10;56.30
24618;DHT22;12762;51.730;5.356;2023-03-01T01:56:55;0.10;56.30
24618;DHT22;12762;51.730;5.356;2023-03-01T01:59:23;0.10;56.30
24618;DHT22;12762;51.730;5.356;2023-03-01T02:01:54;0.10;56.30
24618;DHT22;12762;51.730;5.356;2023-03-01T02:04:23;0.10;56.40
24618;DHT22;12762;51.730;5.356;2023-03-01T02:07:18;0.10;56.40
24618;DHT22;12762;51.730;5.356;2023-03-01T02:09:46;0.10;57.20
24618;DHT22;12762;51.730;5.356;2023-03-01T02:12:20;0.00;56.50
24618;DHT22;12762;51.730;5.356;2023-03-01T02:14:48;0.00;57.20
24618;DHT22;12762;51.730;5.356;2023-03-01T02:17:16;0.00;56.50
24618;DHT22;12762;51.730;5.356;2023-03-01T02:22:47;0.00;56.60
24618;DHT22;12762;51.730;5.356;2023-03-01T02:28:04;0.00;56.80
24618;DHT22;12762;51.730;5.356;2023-03-01T02:30:33;0.00;56.90
24618;DHT22;12762;51.730;5.356;2023-03-01T02:33:01;0.00;56.80
24618;DHT22;12762;51.730;5.356;2023-03-01T02:35:33;0.00;56.80
24618;DHT22;12762;51.730;5.356;2023-03-01T02:38:01;0.00;56.90
24618;DHT22;12762;51.730;5.356;2023-03-01T02:40:29;0.00;57.00
24618;DHT22;12762;51.730;5.356;2023-03-01T02:42:58;0.00;57.00
24618;DHT22;12762;51.730;5.356;2023-03-01T02:45:26;0.00;57.00
24618;DHT22;12762;51.730;5.356;2023-03-01T02:47:54;0.00;57.10
24618;DHT22;12762;51.730;5.356;2023-03-01T02:53:10;0.00;57.10
24618;DHT22;12762;51.730;5.356;2023-03-01T02:55:39;-0.10;57.00
24618;DHT22;12762;51.730;5.356;2023-03-01T02:58:07;-0.10;57.10
24618;DHT22;12762;51.730;5.356;2023-03-01T03:00:39;-0.10;57.10
24618;DHT22;12762;51.730;5.356;2023-03-01T03:03:07;-0.10;57.20
24618;DHT22;12762;51.730;5.356;2023-03-01T03:05:37;-0.10;57.10
24618;DHT22;12762;51.730;5.356;2023-03-01T03:08:04;-0.20;57.20
24618;DHT22;12762;51.730;5.356;2023-03-01T03:10:36;-0.20;57.20
24618;DHT22;12762;51.730;5.356;2023-03-01T03:13:06;-0.20;57.20
24618;DHT22;12762;51.730;5.356;2023-03-01T03:15:37;-0.20;57.20
24618;DHT22;12762;51.730;5.356;2023-03-01T03:18:07;-0.20;57.20
24618;DHT22;12762;51.730;5.356;2023-03-01T03:20:34;-0.20;57.30
24618;DHT22;12762;51.730;5.356;2023-03-01T03:23:02;-0.20;57.30
24618;DHT22;12762;51.730;5.356;2023-03-01T03:25:29;-0.20;57.30
24618;DHT22;12762;51.730;5.356;2023-03-01T03:27:57;-0.30;57.30
24618;DHT22;12762;51.730;5.356;2023-03-01T03:30:29;-0.30;57.40
24618;DHT22;12762;51.730;5.356;2023-03-01T03:33:03;-0.30;57.40
24618;DHT22;12762;51.730;5.356;2023-03-01T03:35:33;-0.30;57.50
24618;DHT22;12762;51.730;5.356;2023-03-01T03:38:04;-0.30;57.50
24618;DHT22;12762;51.730;5.356;2023-03-01T03:40:37;-0.30;57.60
24618;DHT22;12762;51.730;5.356;2023-03-01T03:43:07;-0.40;57.50
24618;DHT22;12762;51.730;5.356;2023-03-01T03:45:34;-0.40;57.50
24618;DHT22;12762;51.730;5.356;2023-03-01T03:48:04;-0.40;57.50
24618;DHT22;12762;51.730;5.356;2023-03-01T03:50:35;-0.40;57.60
24618;DHT22;12762;51.730;5.356;2023-03-01T03:53:04;-0.40;57.70
24618;DHT22;12762;51.730;5.356;2023-03-01T03:55:32;-0.40;57.70
24618;DHT22;12762;51.730;5.356;2023-03-01T03:58:02;-0.50;57.60
24618;DHT22;12762;51.730;5.356;2023-03-01T04:00:38;-0.50;57.60
24618;DHT22;12762;51.730;5.356;2023-03-01T04:03:06;-0.50;57.60
24618;DHT22;12762;51.730;5.356;2023-03-01T04:05:36;-0.50;57.60
24618;DHT22;12762;51.730;5.356;2023-03-01T04:08:03;-0.50;57.70
24618;DHT22;12762;51.730;5.356;2023-03-01T04:10:44;-0.50;57.60
24618;DHT22;12762;51.730;5.356;2023-03-01T04:13:14;-0.60;57.60
24618;DHT22;12762;51.730;5.356;2023-03-01T04:15:43;-0.60;57.70
24618;DHT22;12762;51.730;5.356;2023-03-01T04:18:14;-0.60;57.70
24618;DHT22;12762;51.730;5.356;2023-03-01T04:20:42;-0.60;57.70
24618;DHT22;12762;51.730;5.356;2023-03-01T04:23:12;-0.60;57.80
24618;DHT22;12762;51.730;5.356;2023-03-01T04:25:55;-0.60;57.80
24618;DHT22;12762;51.730;5.356;2023-03-01T04:28:26;-0.70;57.80
24618;DHT22;12762;51.730;5.356;2023-03-01T04:30:55;-0.70;57.80
24618;DHT22;12762;51.730;5.356;2023-03-01T04:33:22;-0.70;57.80
24618;DHT22;12762;51.730;5.356;2023-03-01T04:35:49;-0.70;57.80
24618;DHT22;12762;51.730;5.356;2023-03-01T04:38:18;-0.70;57.80
24618;DHT22;12762;51.730;5.356;2023-03-01T04:40:45;-0.70;57.90
24618;DHT22;12762;51.730;5.356;2023-03-01T04:43:12;-0.70;57.90
24618;DHT22;12762;51.730;5.356;2023-03-01T04:45:47;-0.70;57.90
24618;DHT22;12762;51.730;5.356;2023-03-01T04:48:14;-0.80;57.80
24618;DHT22;12762;51.730;5.356;2023-03-01T04:50:41;-0.80;57.80
24618;DHT22;12762;51.730;5.356;2023-03-01T04:53:07;-0.80;57.80
24618;DHT22;12762;51.730;5.356;2023-03-01T04:55:34;-0.80;57.90
24618;DHT22;12762;51.730;5.356;2023-03-01T04:58:01;-0.80;58.00
24618;DHT22;12762;51.730;5.356;2023-03-01T05:00:33;-0.80;58.00
24618;DHT22;12762;51.730;5.356;2023-03-01T05:03:03;-0.80;58.00
24618;DHT22;12762;51.730;5.356;2023-03-01T05:05:36;-0.80;58.70
24618;DHT22;12762;51.730;5.356;2023-03-01T05:08:06;-0.90;58.00
24618;DHT22;12762;51.730;5.356;2023-03-01T05:10:35;-0.90;58.10
24618;DHT22;12762;51.730;5.356;2023-03-01T05:13:06;-0.90;58.10
24618;DHT22;12762;51.730;5.356;2023-03-01T05:15:33;-0.90;58.10
24618;DHT22;12762;51.730;5.356;2023-03-01T05:18:00;-0.90;58.10
24618;DHT22;12762;51.730;5.356;2023-03-01T05:20:30;-0.90;58.10
24618;DHT22;12762;51.730;5.356;2023-03-01T05:22:59;-0.90;58.10
24618;DHT22;12762;51.730;5.356;2023-03-01T05:25:27;-0.90;58.20
24618;DHT22;12762;51.730;5.356;2023-03-01T05:27:53;-0.90;58.20
24618;DHT22;12762;51.730;5.356;2023-03-01T05:30:20;-0.90;58.20
24618;DHT22;12762;51.730;5.356;2023-03-01T05:32:50;-0.90;58.20
24618;DHT22;12762;51.730;5.356;2023-03-01T05:35:22;-0.90;58.30
24618;DHT22;12762;51.730;5.356;2023-03-01T05:37:50;-0.90;58.30
24618;DHT22;12762;51.730;5.356;2023-03-01T05:40:19;-0.90;58.30
24618;DHT22;12762;51.730;5.356;2023-03-01T05:42:55;-0.90;58.30
24618;DHT22;12762;51.730;5.356;2023-03-01T05:45:24;-0.90;58.30
24618;DHT22;12762;51.730;5.356;2023-03-01T05:47:52;-0.90;58.90
24618;DHT22;12762;51.730;5.356;2023-03-01T05:50:22;-0.90;58.40
24618;DHT22;12762;51.730;5.356;2023-03-01T05:52:51;-0.90;58.40
24618;DHT22;12762;51.730;5.356;2023-03-01T05:55:20;-0.90;58.40
24618;DHT22;12762;51.730;5.356;2023-03-01T05:57:50;-1.00;58.30
24618;DHT22;12762;51.730;5.356;2023-03-01T06:00:19;-1.00;58.30
24618;DHT22;12762;51.730;5.356;2023-03-01T06:02:46;-1.00;58.40
24618;DHT22;12762;51.730;5.356;2023-03-01T06:05:14;-1.00;58.30
24618;DHT22;12762;51.730;5.356;2023-03-01T06:07:45;-1.00;58.40
24618;DHT22;12762;51.730;5.356;2023-03-01T06:10:13;-1.00;58.40
24618;DHT22;12762;51.730;5.356;2023-03-01T06:12:41;-1.00;58.40
24618;DHT22;12762;51.730;5.356;2023-03-01T06:15:09;-1.00;58.50
24618;DHT22;12762;51.730;5.356;2023-03-01T06:17:39;-1.00;58.50
24618;DHT22;12762;51.730;5.356;2023-03-01T06:20:27;-1.00;59.10
24618;DHT22;12762;51.730;5.356;2023-03-01T06:22:54;-1.00;58.50
24618;DHT22;12762;51.730;5.356;2023-03-01T06:25:23;-1.00;58.50
24618;DHT22;12762;51.730;5.356;2023-03-01T06:27:51;-1.00;58.50
24618;DHT22;12762;51.730;5.356;2023-03-01T06:30:21;-1.10;58.50
24618;DHT22;12762;51.730;5.356;2023-03-01T06:32:49;-1.10;58.50
24618;DHT22;12762;51.730;5.356;2023-03-01T06:35:17;-1.10;58.50
24618;DHT22;12762;51.730;5.356;2023-03-01T06:37:45;-1.10;58.60
24618;DHT22;12762;51.730;5.356;2023-03-01T06:40:13;-1.10;58.60
24618;DHT22;12762;51.730;5.356;2023-03-01T06:42:42;-1.10;58.60
24618;DHT22;12762;51.730;5.356;2023-03-01T06:45:10;-1.10;58.60
24618;DHT22;12762;51.730;5.356;2023-03-01T06:47:37;-1.00;58.70
24618;DHT22;12762;51.730;5.356;2023-03-01T06:50:06;-1.00;58.70
24618;DHT22;12762;51.730;5.356;2023-03-01T06:52:33;-1.00;58.70
24618;DHT22;12762;51.730;5.356;2023-03-01T06:55:00;-1.00;58.70
24618;DHT22;12762;51.730;5.356;2023-03-01T06:57:27;-1.00;59.40
24618;DHT22;12762;51.730;5.356;2023-03-01T06:59:54;-1.00;58.80
24618;DHT22;12762;51.730;5.356;2023-03-01T07:02:22;-1.00;58.80
24618;DHT22;12762;51.730;5.356;2023-03-01T07:04:50;-1.00;58.80
24618;DHT22;12762;51.730;5.356;2023-03-01T07:07:18;-1.00;58.80
24618;DHT22;12762;51.730;5.356;2023-03-01T07:09:48;-1.00;58.90
24618;DHT22;12762;51.730;5.356;2023-03-01T07:12:15;-0.90;58.90
24618;DHT22;12762;51.730;5.356;2023-03-01T07:14:44;-0.90;58.90
24618;DHT22;12762;51.730;5.356;2023-03-01T07:17:10;-0.90;58.90
24618;DHT22;12762;51.730;5.356;2023-03-01T07:19:38;-0.90;58.90
24618;DHT22;12762;51.730;5.356;2023-03-01T07:22:05;-0.80;59.00
24618;DHT22;12762;51.730;5.356;2023-03-01T07:24:34;-0.80;59.00
24618;DHT22;12762;51.730;5.356;2023-03-01T07:27:01;-0.80;59.00
24618;DHT22;12762;51.730;5.356;2023-03-01T07:29:27;-0.80;59.00
24618;DHT22;12762;51.730;5.356;2023-03-01T07:31:55;-0.80;59.00
24618;DHT22;12762;51.730;5.356;2023-03-01T07:34:22;-0.70;59.00
24618;DHT22;12762;51.730;5.356;2023-03-01T07:36:49;-0.70;59.10
24618;DHT22;12762;51.730;5.356;2023-03-01T07:39:16;-0.60;59.20
24618;DHT22;12762;51.730;5.356;2023-03-01T07:41:45;-0.60;59.20
24618;DHT22;12762;51.730;5.356;2023-03-01T07:44:12;-0.60;59.20
24618;DHT22;12762;51.730;5.356;2023-03-01T07:46:39;-0.50;59.20
24618;DHT22;12762;51.730;5.356;2023-03-01T07:49:05;-0.50;59.20
24618;DHT22;12762;51.730;5.356;2023-03-01T07:51:32;-0.40;59.30
24618;DHT22;12762;51.730;5.356;2023-03-01T07:53:59;-0.40;59.30
24618;DHT22;12762;51.730;5.356;2023-03-01T07:56:26;-0.30;59.30
24618;DHT22;12762;51.730;5.356;2023-03-01T07:58:53;-0.30;59.30
24618;DHT22;12762;51.730;5.356;2023-03-01T08:01:21;-0.20;59.40
24618;DHT22;12762;51.730;5.356;2023-03-01T08:03:50;-0.20;59.40
24618;DHT22;12762;51.730;5.356;2023-03-01T08:06:24;-0.20;59.30
24618;DHT22;12762;51.730;5.356;2023-03-01T08:08:51;-0.10;59.50
24618;DHT22;12762;51.730;5.356;2023-03-01T08:11:17;-0.10;59.40
24618;DHT22;12762;51.730;5.356;2023-03-01T08:13:48;0.00;59.50
24618;DHT22;12762;51.730;5.356;2023-03-01T08:16:18;0.10;59.60
24618;DHT22;12762;51.730;5.356;2023-03-01T08:18:45;0.10;59.60
24618;DHT22;12762;51.730;5.356;2023-03-01T08:21:15;0.20;59.60
24618;DHT22;12762;51.730;5.356;2023-03-01T08:23:42;0.40;59.90
24618;DHT22;12762;51.730;5.356;2023-03-01T08:26:15;1.40;61.70
24618;DHT22;12762;51.730;5.356;2023-03-01T08:28:42;2.90;62.50
24618;DHT22;12762;51.730;5.356;2023-03-01T08:31:18;4.40;62.00
24618;DHT22;12762;51.730;5.356;2023-03-01T08:33:46;5.70;60.40
24618;DHT22;12762;51.730;5.356;2023-03-01T08:36:23;6.80;59.50
24618;DHT22;12762;51.730;5.356;2023-03-01T08:38:51;8.00;58.50
24618;DHT22;12762;51.730;5.356;2023-03-01T08:41:18;9.00;57.40
24618;DHT22;12762;51.730;5.356;2023-03-01T08:43:45;9.80;56.30
24618;DHT22;12762;51.730;5.356;2023-03-01T08:46:12;10.50;54.50
24618;DHT22;12762;51.730;5.356;2023-03-01T08:48:40;11.10;53.60
24618;DHT22;12762;51.730;5.356;2023-03-01T08:51:14;11.50;52.80
24618;DHT22;12762;51.730;5.356;2023-03-01T08:53:42;11.70;52.10
24618;DHT22;12762;51.730;5.356;2023-03-01T08:56:09;11.60;51.70
24618;DHT22;12762;51.730;5.356;2023-03-01T08:58:37;11.30;52.20
24618;DHT22;12762;51.730;5.356;2023-03-01T09:01:10;10.80;51.40
24618;DHT22;12762;51.730;5.356;2023-03-01T09:03:38;10.40;51.60
24618;DHT22;12762;51.730;5.356;2023-03-01T09:06:06;10.00;51.90
24618;DHT22;12762;51.730;5.356;2023-03-01T09:08:35;9.70;53.10
24618;DHT22;12762;51.730;5.356;2023-03-01T09:11:07;9.40;53.60
24618;DHT22;12762;51.730;5.356;2023-03-01T09:13:34;9.10;54.10
24618;DHT22;12762;51.730;5.356;2023-03-01T09:16:03;9.00;54.70
24618;DHT22;12762;51.730;5.356;2023-03-01T09:18:31;8.90;55.10
24618;DHT22;12762;51.730;5.356;2023-03-01T09:21:04;8.80;55.40
24618;DHT22;12762;51.730;5.356;2023-03-01T09:23:37;8.80;55.80
24618;DHT22;12762;51.730;5.356;2023-03-01T09:26:06;8.90;56.20
24618;DHT22;12762;51.730;5.356;2023-03-01T09:28:33;9.00;56.50
24618;DHT22;12762;51.730;5.356;2023-03-01T09:31:01;9.30;56.70
24618;DHT22;12762;51.730;5.356;2023-03-01T09:33:31;9.60;56.70
24618;DHT22;12762;51.730;5.356;2023-03-01T09:36:09;9.90;56.40
24618;DHT22;12762;51.730;5.356;2023-03-01T09:38:37;10.10;55.40
24618;DHT22;12762;51.730;5.356;2023-03-01T09:41:17;10.20;55.10
24618;DHT22;12762;51.730;5.356;2023-03-01T09:44:13;10.20;54.90
24618;DHT22;12762;51.730;5.356;2023-03-01T09:46:41;10.20;55.60
24618;DHT22;12762;51.730;5.356;2023-03-01T09:49:14;10.20;54.80
24618;DHT22;12762;51.730;5.356;2023-03-01T09:54:57;10.10;54.80
24618;DHT22;12762;51.730;5.356;2023-03-01T10:02:46;10.00;54.80
24618;DHT22;12762;51.730;5.356;2023-03-01T10:09:11;10.10;54.80
24618;DHT22;12762;51.730;5.356;2023-03-01T10:11:25;10.20;54.80
24618;DHT22;12762;51.730;5.356;2023-03-01T10:16:55;10.20;54.40
24618;DHT22;12762;51.730;5.356;2023-03-01T10:19:33;10.30;54.40
24618;DHT22;12762;51.730;5.356;2023-03-01T10:24:48;10.30;54.00
24618;DHT22;12762;51.730;5.356;2023-03-01T10:29:57;10.40;53.70
24618;DHT22;12762;51.730;5.356;2023-03-01T10:32:26;10.40;53.70
24618;DHT22;12762;51.730;5.356;2023-03-01T10:34:53;10.50;53.60
24618;DHT22;12762;51.730;5.356;2023-03-01T10:37:21;10.50;53.50
24618;DHT22;12762;51.730;5.356;2023-03-01T10:40:04;10.60;53.50
24618;DHT22;12762;51.730;5.356;2023-03-01T10:42:48;10.80;53.50
24618;DHT22;12762;51.730;5.356;2023-03-01T10:45:38;10.90;53.50
24618;DHT22;12762;51.730;5.356;2023-03-01T10:50:51;10.90;52.70
24618;DHT22;12762;51.730;5.356;2023-03-01T10:53:35;10.90;52.70
24618;DHT22;12762;51.730;5.356;2023-03-01T10:56:12;11.10;52.90
24618;DHT22;12762;51.730;5.356;2023-03-01T10:59:00;11.20;52.70
24618;DHT22;12762;51.730;5.356;2023-03-01T11:01:33;11.30;52.50
24618;DHT22;12762;51.730;5.356;2023-03-01T11:06:39;11.40;52.30
24618;DHT22;12762;51.730;5.356;2023-03-01T11:09:20;11.40;51.90
24618;DHT22;12762;51.730;5.356;2023-03-01T11:11:57;11.60;51.90
24618;DHT22;12762;51.730;5.356;2023-03-01T11:14:35;11.70;52.70
24618;DHT22;12762;51.730;5.356;2023-03-01T11:17:16;11.80;51.80
24618;DHT22;12762;51.730;5.356;2023-03-01T11:20:05;11.80;50.90
24618;DHT22;12762;51.730;5.356;2023-03-01T11:22:34;11.70;51.20
24618;DHT22;12762;51.730;5.356;2023-03-01T11:25:02;11.60;50.90
24618;DHT22;12762;51.730;5.356;2023-03-01T11:27:43;11.60;51.30
24618;DHT22;12762;51.730;5.356;2023-03-01T11:30:30;11.60;50.80
24618;DHT22;12762;51.730;5.356;2023-03-01T11:38:25;11.60;50.90
24618;DHT22;12762;51.730;5.356;2023-03-01T11:41:13;11.70;51.00
24618;DHT22;12762;51.730;5.356;2023-03-01T11:43:57;11.80;50.40
24618;DHT22;12762;51.730;5.356;2023-03-01T11:59:53;12.20;50.40
24618;DHT22;12762;51.730;5.356;2023-03-01T12:05:24;12.30;50.30
24618;DHT22;12762;51.730;5.356;2023-03-01T12:08:17;12.40;50.30
24618;DHT22;12762;51.730;5.356;2023-03-01T12:10:56;12.50;50.30
24618;DHT22;12762;51.730;5.356;2023-03-01T12:17:57;12.70;50.10
24618;DHT22;12762;51.730;5.356;2023-03-01T12:28:38;12.70;49.50
24618;DHT22;12762;51.730;5.356;2023-03-01T12:31:30;12.70;49.90
24618;DHT22;12762;51.730;5.356;2023-03-01T12:34:21;12.70;49.70
24618;DHT22;12762;51.730;5.356;2023-03-01T12:37:49;12.70;49.50
24618;DHT22;12762;51.730;5.356;2023-03-01T12:40:30;12.80;49.60
24618;DHT22;12762;51.730;5.356;2023-03-01T12:43:17;12.80;49.40
24618;DHT22;12762;51.730;5.356;2023-03-01T12:48:58;12.80;49.30
24618;DHT22;12762;51.730;5.356;2023-03-01T12:51:29;12.90;49.20
24618;DHT22;12762;51.730;5.356;2023-03-01T12:53:59;12.90;48.90
24618;DHT22;12762;51.730;5.356;2023-03-01T12:56:29;13.00;48.90
24618;DHT22;12762;51.730;5.356;2023-03-01T12:59:05;13.10;48.60
24618;DHT22;12762;51.730;5.356;2023-03-01T13:01:44;13.10;48.40
24618;DHT22;12762;51.730;5.356;2023-03-01T13:11:57;13.20;47.90
24618;DHT22;12762;51.730;5.356;2023-03-01T13:16:52;13.30;48.00
24618;DHT22;12762;51.730;5.356;2023-03-01T13:19:25;13.30;47.80
24618;DHT22;12762;51.730;5.356;2023-03-01T13:21:53;13.20;47.60
24618;DHT22;12762;51.730;5.356;2023-03-01T13:27:11;13.30;47.40
24618;DHT22;12762;51.730;5.356;2023-03-01T13:29:58;13.30;47.30
24618;DHT22;12762;51.730;5.356;2023-03-01T13:32:34;13.40;47.60
24618;DHT22;12762;51.730;5.356;2023-03-01T13:37:46;13.30;47.10
24618;DHT22;12762;51.730;5.356;2023-03-01T13:42:49;13.30;46.80
24618;DHT22;12762;51.730;5.356;2023-03-01T13:45:39;13.40;46.90
24618;DHT22;12762;51.730;5.356;2023-03-01T13:48:25;13.30;46.80
24618;DHT22;12762;51.730;5.356;2023-03-01T13:51:06;13.30;47.00
24618;DHT22;12762;51.730;5.356;2023-03-01T13:53:36;13.30;46.80
24618;DHT22;12762;51.730;5.356;2023-03-01T13:56:16;13.30;46.70
24618;DHT22;12762;51.730;5.356;2023-03-01T13:58:58;13.30;46.50
24618;DHT22;12762;51.730;5.356;2023-03-01T14:01:31;13.30;46.50
24618;DHT22;12762;51.730;5.356;2023-03-01T14:04:03;13.30;46.40
24618;DHT22;12762;51.730;5.356;2023-03-01T14:06:34;13.20;46.40
24618;DHT22;12762;51.730;5.356;2023-03-01T14:19:57;13.00;46.00
24618;DHT22;12762;51.730;5.356;2023-03-01T14:22:27;12.90;46.00
24618;DHT22;12762;51.730;5.356;2023-03-01T14:25:00;12.90;45.80
24618;DHT22;12762;51.730;5.356;2023-03-01T14:27:37;12.80;45.90
24618;DHT22;12762;51.730;5.356;2023-03-01T14:30:20;12.80;46.00
24618;DHT22;12762;51.730;5.356;2023-03-01T14:33:00;12.80;45.30
24618;DHT22;12762;51.730;5.356;2023-03-01T14:35:33;12.70;45.80
24618;DHT22;12762;51.730;5.356;2023-03-01T14:38:00;12.70;45.90
24618;DHT22;12762;51.730;5.356;2023-03-01T14:40:33;12.70;46.10
24618;DHT22;12762;51.730;5.356;2023-03-01T14:43:08;12.70;45.90
24618;DHT22;12762;51.730;5.356;2023-03-01T14:45:37;12.70;45.70
24618;DHT22;12762;51.730;5.356;2023-03-01T14:48:05;12.70;45.70
24618;DHT22;12762;51.730;5.356;2023-03-01T14:50:35;12.70;45.40
24618;DHT22;12762;51.730;5.356;2023-03-01T14:53:05;12.60;45.50
24618;DHT22;12762;51.730;5.356;2023-03-01T14:55:38;12.60;45.40
24618;DHT22;12762;51.730;5.356;2023-03-01T14:58:13;12.50;45.30
24618;DHT22;12762;51.730;5.356;2023-03-01T15:00:53;12.40;45.30
24618;DHT22;12762;51.730;5.356;2023-03-01T15:03:27;12.40;45.30
24618;DHT22;12762;51.730;5.356;2023-03-01T15:05:58;12.30;45.30
24618;DHT22;12762;51.730;5.356;2023-03-01T15:08:27;12.30;45.30
24618;DHT22;12762;51.730;5.356;2023-03-01T15:11:15;12.20;45.10
24618;DHT22;12762;51.730;5.356;2023-03-01T15:13:44;12.20;45.00
24618;DHT22;12762;51.730;5.356;2023-03-01T15:18:55;12.00;44.90
24618;DHT22;12762;51.730;5.356;2023-03-01T15:21:38;11.90;45.00
24618;DHT22;12762;51.730;5.356;2023-03-01T15:26:56;11.70;45.30
24618;DHT22;12762;51.730;5.356;2023-03-01T15:29:27;11.70;45.10
24618;DHT22;12762;51.730;5.356;2023-03-01T15:32:24;11.90;45.60
24618;DHT22;12762;51.730;5.356;2023-03-01T15:34:48;12.20;45.50
24618;DHT22;12762;51.730;5.356;2023-03-01T15:37:44;12.60;45.40
24618;DHT22;12762;51.730;5.356;2023-03-01T15:40:23;12.90;45.20
24618;DHT22;12762;51.730;5.356;2023-03-01T15:43:03;13.20;44.90
24618;DHT22;12762;51.730;5.356;2023-03-01T15:45:32;13.40;44.50
24618;DHT22;12762;51.730;5.356;2023-03-01T15:48:23;13.50;43.90
24618;DHT22;12762;51.730;5.356;2023-03-01T15:50:56;13.40;43.30
24618;DHT22;12762;51.730;5.356;2023-03-01T15:53:26;13.00;43.00
24618;DHT22;12762;51.730;5.356;2023-03-01T15:55:54;12.60;42.90
24618;DHT22;12762;51.730;5.356;2023-03-01T15:58:27;12.30;43.10
24618;DHT22;12762;51.730;5.356;2023-03-01T16:00:54;11.90;43.10
24618;DHT22;12762;51.730;5.356;2023-03-01T16:03:28;11.60;43.20
24618;DHT22;12762;51.730;5.356;2023-03-01T16:05:55;11.30;43.40
24618;DHT22;12762;51.730;5.356;2023-03-01T16:08:21;11.10;43.50
24618;DHT22;12762;51.730;5.356;2023-03-01T16:10:49;10.80;43.70
24618;DHT22;12762;51.730;5.356;2023-03-01T16:13:17;10.60;43.90
24618;DHT22;12762;51.730;5.356;2023-03-01T16:15:45;10.40;44.00
24618;DHT22;12762;51.730;5.356;2023-03-01T16:18:15;10.20;44.10
24618;DHT22;12762;51.730;5.356;2023-03-01T16:20:42;10.00;44.30
24618;DHT22;12762;51.730;5.356;2023-03-01T16:23:10;9.80;45.30
24618;DHT22;12762;51.730;5.356;2023-03-01T16:25:38;9.70;45.50
24618;DHT22;12762;51.730;5.356;2023-03-01T16:28:05;9.50;45.50
24618;DHT22;12762;51.730;5.356;2023-03-01T16:30:37;9.40;45.70
24618;DHT22;12762;51.730;5.356;2023-03-01T16:33:04;9.30;45.80
24618;DHT22;12762;51.730;5.356;2023-03-01T16:35:55;9.20;45.90
24618;DHT22;12762;51.730;5.356;2023-03-01T16:38:22;9.10;46.10
24618;DHT22;12762;51.730;5.356;2023-03-01T16:40:51;9.00;46.10
24618;DHT22;12762;51.730;5.356;2023-03-01T16:43:18;8.90;46.20
24618;DHT22;12762;51.730;5.356;2023-03-01T16:45:45;8.80;46.40
24618;DHT22;12762;51.730;5.356;2023-03-01T16:48:22;8.70;46.40
24618;DHT22;12762;51.730;5.356;2023-03-01T16:50:59;8.50;46.40
24618;DHT22;12762;51.730;5.356;2023-03-01T16:53:29;8.50;46.60
24618;DHT22;12762;51.730;5.356;2023-03-01T16:55:57;8.30;46.60
24618;DHT22;12762;51.730;5.356;2023-03-01T16:58:24;8.20;46.70
24618;DHT22;12762;51.730;5.356;2023-03-01T17:00:52;8.10;46.80
24618;DHT22;12762;51.730;5.356;2023-03-01T17:03:20;8.00;46.90
24618;DHT22;12762;51.730;5.356;2023-03-01T17:05:48;7.90;46.90
24618;DHT22;12762;51.730;5.356;2023-03-01T17:08:15;7.80;47.00
24618;DHT22;12762;51.730;5.356;2023-03-01T17:10:43;7.70;47.00
24618;DHT22;12762;51.730;5.356;2023-03-01T17:13:11;7.60;47.10
24618;DHT22;12762;51.730;5.356;2023-03-01T17:15:40;7.50;47.20
24618;DHT22;12762;51.730;5.356;2023-03-01T17:18:08;7.40;47.20
24618;DHT22;12762;51.730;5.356;2023-03-01T17:20:35;7.30;47.30
24618;DHT22;12762;51.730;5.356;2023-03-01T17:23:02;7.20;47.30
24618;DHT22;12762;51.730;5.356;2023-03-01T17:25:29;7.10;47.40
24618;DHT22;12762;51.730;5.356;2023-03-01T17:27:56;7.00;47.50
24618;DHT22;12762;51.730;5.356;2023-03-01T17:30:23;6.90;47.50
24618;DHT22;12762;51.730;5.356;2023-03-01T17:32:50;6.90;47.60
24618;DHT22;12762;51.730;5.356;2023-03-01T17:35:20;6.80;47.70
24618;DHT22;12762;51.730;5.356;2023-03-01T17:37:46;6.70;47.80
24618;DHT22;12762;51.730;5.356;2023-03-01T17:40:13;6.60;47.80
24618;DHT22;12762;51.730;5.356;2023-03-01T17:42:40;6.60;47.90
24618;DHT22;12762;51.730;5.356;2023-03-01T17:45:08;6.50;47.90
24618;DHT22;12762;51.730;5.356;2023-03-01T17:47:35;6.40;47.90
24618;DHT22;12762;51.730;5.356;2023-03-01T17:50:02;6.30;48.70